createdAt,value
2019-01-24T00:00:50.782Z,985.89
2019-01-24T00:10:50.748Z,986.12
2019-01-24T00:20:53.080Z,986.16
2019-01-24T00:30:50.779Z,986.25
2019-01-24T00:40:50.717Z,986.36
2019-01-24T00:50:50.738Z,986.47
2019-01-24T01:00:50.776Z,986.52
2019-01-24T01:10:50.683Z,986.59
2019-01-24T01:20:50.778Z,986.69
2019-01-24T01:30:51.487Z,986.80
2019-01-24T01:40:50.812Z,986.75
2019-01-24T01:50:50.715Z,986.97
2019-01-24T02:00:50.879Z,987.04
2019-01-24T02:10:50.665Z,987.17
2019-01-24T02:20:51.484Z,987.13
2019-01-24T02:30:50.655Z,987.17
2019-01-24T02:40:51.064Z,987.19
2019-01-24T02:50:50.684Z,987.17
2019-01-24T03:00:50.740Z,987.20
2019-01-24T03:10:50.775Z,987.26
2019-01-24T03:20:50.622Z,987.31
2019-01-24T03:30:57.917Z,987.22
2019-01-24T03:40:50.663Z,987.37
2019-01-24T03:50:50.682Z,987.46
2019-01-24T04:00:50.586Z,987.59
2019-01-24T04:10:50.700Z,987.70
2019-01-24T04:20:50.705Z,987.84
2019-01-24T04:30:50.649Z,987.88
2019-01-24T04:40:50.654Z,988.02
2019-01-24T04:50:50.634Z,988.01
2019-01-24T05:00:50.797Z,988.11
2019-01-24T05:10:50.546Z,988.21
2019-01-24T05:20:50.609Z,988.26
2019-01-24T05:30:50.610Z,988.25
2019-01-24T05:40:50.673Z,988.13
2019-01-24T05:50:50.683Z,988.13
2019-01-24T06:00:50.650Z,988.23
2019-01-24T06:10:50.697Z,988.22
2019-01-24T06:20:50.751Z,988.31
2019-01-24T06:30:50.698Z,988.42
2019-01-24T06:40:50.801Z,988.51
2019-01-24T06:50:50.746Z,988.71
2019-01-24T07:00:50.739Z,988.72
2019-01-24T07:10:50.639Z,988.87
2019-01-24T07:20:50.881Z,989.17
2019-01-24T07:30:50.605Z,989.47
2019-01-24T07:40:50.814Z,989.63
2019-01-24T07:50:51.585Z,989.84
2019-01-24T08:00:50.922Z,989.96
2019-01-24T08:10:50.787Z,990.03
2019-01-24T08:20:50.716Z,990.04
2019-01-24T08:30:50.760Z,990.06
2019-01-24T08:40:50.793Z,990.08
2019-01-24T08:50:50.672Z,989.93
2019-01-24T09:00:50.586Z,989.87
2019-01-24T09:10:50.890Z,989.74
2019-01-24T09:20:50.660Z,989.84
2019-01-24T09:30:50.859Z,989.89
2019-01-24T09:40:51.823Z,990.02
2019-01-24T09:50:50.683Z,990.11
2019-01-24T10:00:50.659Z,990.26
2019-01-24T10:10:50.744Z,990.48
2019-01-24T10:20:50.616Z,990.53
2019-01-24T10:30:50.689Z,990.56
2019-01-24T10:40:50.729Z,990.62
2019-01-24T10:50:50.559Z,990.64
2019-01-24T11:00:50.714Z,990.60
2019-01-24T11:10:50.702Z,990.44
2019-01-24T11:20:50.568Z,990.52
2019-01-24T11:30:50.737Z,990.60
2019-01-24T11:40:50.579Z,990.50
2019-01-24T11:50:51.201Z,990.59
2019-01-24T12:00:50.622Z,990.60
2019-01-24T12:10:50.696Z,990.47
2019-01-24T12:20:50.675Z,990.36
2019-01-24T12:30:50.591Z,990.48
2019-01-24T12:40:50.656Z,990.62
2019-01-24T12:50:50.608Z,990.60
2019-01-24T13:00:50.577Z,990.49
2019-01-24T13:10:50.650Z,990.68
2019-01-24T13:20:50.635Z,990.65
2019-01-24T13:30:50.561Z,990.64
2019-01-24T13:40:50.567Z,990.62
2019-01-24T13:50:50.617Z,990.47
2019-01-24T14:00:50.612Z,990.62
2019-01-24T14:10:50.662Z,990.69
2019-01-24T14:20:50.639Z,990.75
2019-01-24T14:30:50.629Z,990.84
2019-01-24T14:40:51.502Z,990.88
2019-01-24T14:50:50.734Z,990.88
2019-01-24T15:00:50.560Z,991.00
2019-01-24T15:10:50.783Z,991.16
2019-01-24T15:20:50.504Z,991.28
2019-01-24T15:30:50.666Z,991.47
2019-01-24T15:40:50.617Z,991.45
2019-01-24T15:50:50.611Z,991.63
2019-01-24T16:00:50.559Z,991.64
2019-01-24T16:10:50.487Z,991.54
2019-01-24T16:20:50.564Z,991.59
2019-01-24T16:30:51.025Z,991.65
2019-01-24T16:40:50.640Z,991.72
2019-01-24T16:50:50.592Z,991.69
2019-01-24T17:00:50.501Z,991.84
2019-01-24T17:10:50.510Z,991.87
2019-01-24T17:20:50.489Z,991.98
2019-01-24T17:30:50.390Z,992.10
2019-01-24T17:40:50.461Z,991.96
2019-01-24T17:50:50.473Z,992.16
2019-01-24T18:00:50.486Z,992.20
2019-01-24T18:10:50.447Z,992.25
2019-01-24T18:20:50.460Z,992.31
2019-01-24T18:30:50.524Z,992.44
2019-01-24T18:40:50.728Z,992.58
2019-01-24T18:50:50.503Z,992.58
2019-01-24T19:00:50.468Z,992.61
2019-01-24T19:10:50.412Z,992.69
2019-01-24T19:20:50.535Z,992.67
2019-01-24T19:30:50.471Z,992.85
2019-01-24T19:40:50.307Z,992.90
2019-01-24T19:50:50.359Z,992.93
2019-01-24T20:00:50.446Z,992.96
2019-01-24T20:10:50.388Z,992.98
2019-01-24T20:20:50.449Z,992.81
2019-01-24T20:30:50.404Z,992.93
2019-01-24T20:40:50.431Z,992.95
2019-01-24T20:50:50.453Z,992.99
2019-01-24T21:00:50.444Z,993.05
2019-01-24T21:10:50.343Z,993.04
2019-01-24T21:20:50.411Z,993.16
2019-01-24T21:30:50.389Z,993.14
2019-01-24T21:40:50.395Z,993.11
2019-01-24T21:50:50.917Z,993.17
2019-01-24T22:00:50.355Z,993.21
2019-01-24T22:10:50.432Z,993.20
2019-01-24T22:20:55.641Z,993.17
2019-01-24T22:30:50.406Z,993.20
2019-01-24T22:40:51.152Z,993.28
2019-01-24T22:50:50.341Z,993.28
2019-01-24T23:00:50.352Z,993.40
2019-01-24T23:10:50.340Z,993.57
2019-01-24T23:20:50.411Z,993.54
2019-01-24T23:30:50.391Z,993.72
2019-01-24T23:40:50.517Z,993.59
2019-01-24T23:50:50.320Z,993.48
